Hays Regional Airport
KHYS : now visible

Airfield :











YOU CAN JOIN US ON...

 
LOGIN :

Register | Disclaimer

   EN    FR    IT 

 









Legend :    VFR   Marginal VFR   IFR   Intensive IFR   Very Intensive IFR
Visi :
Ceiling :
>= 8 km
>= 3000ft
5 to 8 km
1000 to 3000 ft
1500m to 5 km
500 to 1000 ft
800 to 1500m
200 to 500 ft
< 800m
< 200 ft
Symbols :   Thunderstorms  Fog  Heavy snow  Heavy precipitations  Wind > 20 kt






- Airport Elevation : 1999 ft


KHYS - Hays Regional

CURRENT METAR :
  • 262356Z AUTO 35009KT 10SM FEW019 BKN060 OVC090 M06/M09 A3037 RMK AO2 SLP315 60000 T10561094 11044 21061 55005 FZRANO

EXPIRED METARs :
  • 262256Z AUTO 35009KT 10SM FEW018 OVC080 M05/M09 A3036 RMK AO2 SNB2157E07 SLP312 P0000 T10501089 FZRANO
  • 262242Z AUTO 35011KT 10SM SCT018 BKN031 OVC080 M05/M08 A3037 RMK AO2 SNB2157E07 P0000 FZRANO
  • 262228Z AUTO 36011KT 10SM BKN020 BKN030 OVC038 M05/M08 A3038 RMK AO2 SNB2157E07 P0000 FZRANO
  • 262156Z AUTO 01012KT 10SM FEW016 BKN048 BKN060 M05/M08 A3037 RMK AO2 SNE40 SLP314 P0000 T10501083 FZRANO
  • 262143Z AUTO 01013KT 9SM FEW019 SCT065 BKN090 M05/M08 A3037 RMK AO2 SNE40 P0000 FZRANO

TAF KHYS
Valid from the 26 at 23:00 until the 28 at 00:00 UTC


262323Z 2623/2724 35009KT P6SM VCSH FEW018 OVC080
FM270600 33006KT P6SM OVC040
FM271200 30004KT P6SM BKN100
FM271500 25005KT P6SM BKN150
KZKC FIR / North America



MET'MAP, your aeronautical weather chart ! - Copyright ORBIFLY December 2007 - Disclaimer

ORBIFLY MET'MAP TEAM :

Programming & Development : Alexandra Zaïnal
Concept & original design : Baudouin d'Aumeries
Assistance for programming : Marc-Olivier Méhu
Technical & hardware support : Manuel Goepfert

Contact : metmap@orbifly.com




SOURCES & CREDITS :

   NOAA       Earth
Advisory